Terminal Aerodrome Forecast
Issued by NWS

Home | Current Version | Previous Version | Graphics & Text | Print | Product List | Glossary On
Versions: 1 2 3 4 5 6 7 8 9 10 11 12 13 14 15 16 17 18 19
000
FTUS43 KGRB 041602 AAC
TAFMTW
TAF AMD
KMTW 041602Z 0416/0512 06005KT P6SM SCT006 BKN015
      TEMPO 0416/0417 5SM BR BKN006
     FM041900 08005KT P6SM SCT020 SCT035
     FM042100 14004KT P6SM SCT040
     FM050400 15003KT 5SM BR SKC
      TEMPO 0508/0512 2SM BR SCT006=

USA.gov is the U.S. government's official web portal to all federal, state and local government web resources and services.